createdAt,value
2024-01-15T00:02:16.091Z,100109.03
2024-01-15T00:04:44.048Z,100099.78
2024-01-15T00:07:12.745Z,100089.50
2024-01-15T00:09:41.409Z,100088.91
2024-01-15T00:12:09.181Z,100094.22
2024-01-15T00:14:36.864Z,100083.59
2024-01-15T00:17:04.608Z,100078.31
2024-01-15T00:19:33.654Z,100076.91
2024-01-15T00:22:01.487Z,100069.56
2024-01-15T00:24:30.120Z,100072.78
2024-01-15T00:26:58.178Z,100078.22
2024-01-15T00:29:25.743Z,100080.72
2024-01-15T00:31:54.759Z,100060.88
2024-01-15T00:34:23.719Z,100064.13
2024-01-15T00:36:51.418Z,100069.56
2024-01-15T00:39:19.194Z,100068.75
2024-01-15T00:41:46.953Z,100067.94
2024-01-15T00:44:14.523Z,100079.34
2024-01-15T00:46:46.792Z,100072.28
2024-01-15T00:49:15.029Z,100072.56
2024-01-15T00:51:42.910Z,100066.16
2024-01-15T00:54:10.491Z,100055.94
2024-01-15T00:56:39.855Z,100053.13
2024-01-15T00:59:07.536Z,100047.84
2024-01-15T01:01:35.249Z,100049.25
2024-01-15T01:04:03.011Z,100053.03
2024-01-15T01:06:33.486Z,100054.63
2024-01-15T01:09:01.951Z,100051.94
2024-01-15T01:11:29.732Z,100053.91
2024-01-15T01:13:57.968Z,100056.66
2024-01-15T01:16:25.987Z,100052.22
2024-01-15T01:18:54.525Z,100043.28
2024-01-15T01:21:22.340Z,100033.53
2024-01-15T01:23:50.030Z,100020.31
2024-01-15T01:26:19.063Z,100025.75
2024-01-15T01:28:47.288Z,100020.84
2024-01-15T01:31:15.008Z,100018.25
2024-01-15T01:33:42.785Z,100014.94
2024-01-15T01:36:11.078Z,100006.03
2024-01-15T01:38:39.341Z,100003.97
2024-01-15T01:41:07.034Z,100004.28
2024-01-15T01:43:34.748Z,100013.00
2024-01-15T01:46:04.083Z,100002.50
2024-01-15T01:48:32.962Z,100000.84
2024-01-15T01:51:03.316Z,99991.06
2024-01-15T01:53:34.161Z,99992.56
2024-01-15T01:56:02.593Z,99987.44
2024-01-15T01:58:31.733Z,99984.94
2024-01-15T02:01:00.419Z,99978.72
2024-01-15T02:03:29.776Z,99975.28
2024-01-15T02:05:58.016Z,99958.28
2024-01-15T02:08:27.209Z,99969.53
2024-01-15T02:10:55.179Z,99964.16
2024-01-15T02:13:23.088Z,99959.97
2024-01-15T02:15:50.865Z,99948.91
2024-01-15T02:18:18.785Z,99950.44
2024-01-15T02:20:47.741Z,99948.97
2024-01-15T02:23:16.444Z,99944.38
2024-01-15T02:25:46.483Z,99936.94
2024-01-15T02:28:16.770Z,99925.59
2024-01-15T02:30:45.184Z,99929.34
2024-01-15T02:33:13.720Z,99928.84
2024-01-15T02:35:42.103Z,99928.50
2024-01-15T02:38:10.775Z,99920.34
2024-01-15T02:40:40.409Z,99905.59
2024-01-15T02:43:08.185Z,99916.63
2024-01-15T02:45:35.972Z,99922.31
2024-01-15T02:48:03.900Z,99932.56
2024-01-15T02:50:32.736Z,99939.78
2024-01-15T02:53:00.446Z,99939.38
2024-01-15T02:55:30.701Z,99947.16
2024-01-15T02:57:59.643Z,99938.69
2024-01-15T03:00:27.205Z,99947.22
2024-01-15T03:02:55.783Z,99941.19
2024-01-15T03:05:23.828Z,99937.09
2024-01-15T03:07:51.456Z,99933.16
2024-01-15T03:10:19.587Z,99917.44
2024-01-15T03:12:47.166Z,99912.69
2024-01-15T03:15:14.881Z,99916.34
2024-01-15T03:17:44.240Z,99920.13
2024-01-15T03:20:12.757Z,99920.34
2024-01-15T03:22:40.759Z,99911.63
2024-01-15T03:25:09.192Z,99902.09
2024-01-15T03:27:37.136Z,99895.38
2024-01-15T03:30:05.241Z,99890.00
2024-01-15T03:32:33.862Z,99888.34
2024-01-15T03:35:01.910Z,99883.91
2024-01-15T03:37:29.679Z,99873.00
2024-01-15T03:39:58.143Z,99866.81
2024-01-15T03:42:25.896Z,99857.25
2024-01-15T03:44:53.573Z,99856.25
2024-01-15T03:47:21.211Z,99860.38
2024-01-15T03:49:49.017Z,99854.09
2024-01-15T03:52:16.745Z,99862.97
2024-01-15T03:54:44.491Z,99854.91
2024-01-15T03:57:12.067Z,99853.59
2024-01-15T03:59:42.913Z,99850.22
2024-01-15T04:02:10.497Z,99842.44
2024-01-15T04:04:42.235Z,99841.72
2024-01-15T04:07:10.985Z,99834.16
2024-01-15T04:09:39.137Z,99826.28
2024-01-15T04:12:06.957Z,99815.66
2024-01-15T04:14:34.616Z,99815.34
2024-01-15T04:17:02.328Z,99821.78
2024-01-15T04:19:30.045Z,99814.50
2024-01-15T04:21:57.740Z,99812.91
2024-01-15T04:24:25.357Z,99815.25
2024-01-15T04:26:52.996Z,99806.72
2024-01-15T04:29:20.667Z,99803.00
2024-01-15T04:31:48.470Z,99802.53
2024-01-15T04:34:16.089Z,99802.69
2024-01-15T04:36:44.347Z,99808.72
2024-01-15T04:39:13.034Z,99811.41
2024-01-15T04:41:40.747Z,99810.72
2024-01-15T04:44:08.315Z,99816.00
2024-01-15T04:46:36.162Z,99812.22
2024-01-15T04:49:03.806Z,99805.63
2024-01-15T04:51:31.838Z,99796.34
2024-01-15T04:53:59.473Z,99804.97
2024-01-15T04:56:27.983Z,99798.88
2024-01-15T04:58:55.566Z,99794.91
2024-01-15T05:01:23.730Z,99793.34
2024-01-15T05:03:51.571Z,99791.28
2024-01-15T05:06:19.739Z,99784.16
2024-01-15T05:08:47.315Z,99787.59
2024-01-15T05:11:14.904Z,99777.72
2024-01-15T05:13:42.663Z,99776.53
2024-01-15T05:16:10.271Z,99772.44
2024-01-15T05:18:41.184Z,99774.03
2024-01-15T05:21:09.955Z,99774.78
2024-01-15T05:23:37.980Z,99759.84
2024-01-15T05:26:05.537Z,99761.97
2024-01-15T05:28:33.249Z,99752.34
2024-01-15T05:31:01.185Z,99757.25
2024-01-15T05:33:29.001Z,99759.06
2024-01-15T05:35:56.851Z,99753.16
2024-01-15T05:38:24.446Z,99748.53
2024-01-15T05:40:51.979Z,99740.75
2024-01-15T05:43:19.724Z,99749.09
2024-01-15T05:45:47.481Z,99744.19
2024-01-15T05:48:15.334Z,99743.88
2024-01-15T05:50:43.255Z,99737.59
2024-01-15T05:53:11.355Z,99728.31
2024-01-15T05:55:39.669Z,99731.19
2024-01-15T05:58:07.516Z,99730.56
2024-01-15T06:00:36.788Z,99727.47
2024-01-15T06:03:04.509Z,99733.53
2024-01-15T06:05:32.240Z,99733.78
2024-01-15T06:07:59.797Z,99742.22
2024-01-15T06:10:27.536Z,99740.56
2024-01-15T06:12:55.279Z,99741.69
2024-01-15T06:15:23.361Z,99758.31
2024-01-15T06:17:51.136Z,99746.78
2024-01-15T06:20:19.169Z,99741.28
2024-01-15T06:22:46.794Z,99746.22
2024-01-15T06:25:14.722Z,99730.53
2024-01-15T06:27:42.395Z,99733.97
2024-01-15T06:30:10.692Z,99734.50
2024-01-15T06:32:38.631Z,99738.72
2024-01-15T06:35:07.111Z,99734.19
2024-01-15T06:37:35.114Z,99738.59
2024-01-15T06:40:02.760Z,99735.63
2024-01-15T06:42:30.747Z,99727.38
2024-01-15T06:44:58.385Z,99726.84
2024-01-15T06:47:26.046Z,99723.34
2024-01-15T06:49:53.971Z,99730.38
2024-01-15T06:52:21.728Z,99731.16
2024-01-15T06:54:49.952Z,99730.66
2024-01-15T06:57:17.913Z,99736.97
2024-01-15T06:59:45.620Z,99739.50
2024-01-15T07:02:13.705Z,99735.53
2024-01-15T07:04:43.593Z,99729.06
2024-01-15T07:07:11.598Z,99721.56
2024-01-15T07:09:40.209Z,99734.28
2024-01-15T07:12:07.933Z,99731.91
2024-01-15T07:14:36.738Z,99733.41
2024-01-15T07:17:04.442Z,99732.72
2024-01-15T07:19:32.094Z,99727.38
2024-01-15T07:22:00.393Z,99730.53
2024-01-15T07:24:28.195Z,99740.75
2024-01-15T07:26:56.897Z,99743.53
2024-01-15T07:29:24.562Z,99744.31
2024-01-15T07:31:52.838Z,99740.84
2024-01-15T07:34:20.890Z,99732.69
2024-01-15T07:36:49.592Z,99729.75
2024-01-15T07:39:18.202Z,99744.94
2024-01-15T07:41:46.235Z,99749.75
2024-01-15T07:44:13.879Z,99755.41
2024-01-15T07:46:45.127Z,99753.56
2024-01-15T07:49:12.994Z,99754.31
2024-01-15T07:51:41.826Z,99753.69
2024-01-15T07:54:10.426Z,99760.38
2024-01-15T07:57:01.193Z,99763.44
2024-01-15T07:59:29.001Z,99772.78
2024-01-15T08:01:57.737Z,99765.09
2024-01-15T08:04:26.293Z,99754.53
2024-01-15T08:06:54.276Z,99752.06
2024-01-15T08:09:22.397Z,99757.28
2024-01-15T08:11:50.728Z,99752.59
2024-01-15T08:14:19.166Z,99760.34
2024-01-15T08:16:47.155Z,99749.91
2024-01-15T08:19:15.701Z,99754.63
2024-01-15T08:21:44.103Z,99760.91
2024-01-15T08:24:11.805Z,99764.66
2024-01-15T08:26:39.533Z,99761.41
2024-01-15T08:29:08.185Z,99753.59
2024-01-15T08:31:36.187Z,99754.16
2024-01-15T08:34:04.058Z,99758.41
2024-01-15T08:36:33.076Z,99757.53
2024-01-15T08:39:00.700Z,99745.06
2024-01-15T08:41:28.350Z,99745.94
2024-01-15T08:43:56.255Z,99742.34
2024-01-15T08:46:24.127Z,99741.38
2024-01-15T08:48:52.379Z,99745.25
2024-01-15T08:51:20.139Z,99736.06
2024-01-15T08:53:47.971Z,99744.91
2024-01-15T08:56:16.020Z,99744.88
2024-01-15T08:58:43.720Z,99748.50
2024-01-15T09:01:11.900Z,99744.50
2024-01-15T09:03:42.961Z,99739.59
2024-01-15T09:06:11.581Z,99734.09
2024-01-15T09:08:40.188Z,99728.75
2024-01-15T09:11:07.749Z,99738.97
2024-01-15T09:13:35.843Z,99742.69
2024-01-15T09:16:04.749Z,99737.63
2024-01-15T09:18:33.770Z,99735.41
2024-01-15T09:21:01.381Z,99731.13
2024-01-15T09:23:29.821Z,99731.47
2024-01-15T09:25:58.046Z,99720.06
2024-01-15T09:28:26.067Z,99731.97
2024-01-15T09:30:55.772Z,99726.41
2024-01-15T09:33:23.626Z,99731.53
2024-01-15T09:35:51.399Z,99744.91
2024-01-15T09:38:20.389Z,99750.09
2024-01-15T09:40:48.497Z,99751.56
2024-01-15T09:43:17.229Z,99747.53
2024-01-15T09:45:45.864Z,99731.31
2024-01-15T09:48:14.205Z,99728.25
2024-01-15T09:50:41.986Z,99734.44
2024-01-15T09:53:10.707Z,99736.53
2024-01-15T09:55:41.082Z,99739.38
2024-01-15T09:58:09.068Z,99728.22
2024-01-15T10:00:40.315Z,99727.34
2024-01-15T10:03:09.432Z,99719.34
2024-01-15T10:05:37.115Z,99713.56
2024-01-15T10:08:06.752Z,99715.31
2024-01-15T10:10:37.772Z,99720.38
2024-01-15T10:13:06.029Z,99703.72
2024-01-15T10:15:38.242Z,99692.81
2024-01-15T10:18:06.814Z,99690.75
2024-01-15T10:20:34.537Z,99690.50
2024-01-15T10:23:02.130Z,99685.06
2024-01-15T10:25:30.518Z,99685.69
2024-01-15T10:28:02.885Z,99677.88
2024-01-15T10:30:31.516Z,99671.19
2024-01-15T10:33:04.066Z,99666.84
2024-01-15T10:35:35.750Z,99659.84
2024-01-15T10:38:04.257Z,99658.59
2024-01-15T10:40:32.714Z,99652.41
2024-01-15T10:43:00.356Z,99647.03
2024-01-15T10:45:28.651Z,99651.16
2024-01-15T10:48:00.368Z,99649.38
2024-01-15T10:50:30.700Z,99642.69
2024-01-15T10:52:59.178Z,99651.25
2024-01-15T10:55:29.106Z,99642.84
2024-01-15T10:57:59.190Z,99639.50
2024-01-15T11:00:29.131Z,99635.84
2024-01-15T11:02:57.486Z,99628.13
2024-01-15T11:05:25.257Z,99628.69
2024-01-15T11:07:57.582Z,99615.28
2024-01-15T11:10:47.854Z,99622.63
2024-01-15T11:13:21.503Z,99616.94
2024-01-15T11:16:00.985Z,99614.53
2024-01-15T11:18:53.115Z,99610.50
2024-01-15T11:21:23.145Z,99613.59
2024-01-15T11:23:54.758Z,99617.66
2024-01-15T11:26:32.455Z,99611.72
2024-01-15T11:29:21.588Z,99610.00
2024-01-15T11:31:49.610Z,99604.66
2024-01-15T11:34:17.569Z,99599.47
2024-01-15T11:36:54.725Z,99600.03
2024-01-15T11:39:28.372Z,99603.09
2024-01-15T11:41:56.685Z,99593.19
2024-01-15T11:44:25.068Z,99586.41
2024-01-15T11:47:13.011Z,99585.25
2024-01-15T11:50:06.332Z,99579.81
2024-01-15T11:52:36.417Z,99567.56
2024-01-15T11:55:20.721Z,99556.00
2024-01-15T11:57:52.321Z,99537.47
2024-01-15T12:00:20.769Z,99549.38
2024-01-15T12:02:52.156Z,99534.25
2024-01-15T12:05:21.440Z,99534.78
2024-01-15T12:07:51.398Z,99504.13
2024-01-15T12:10:21.331Z,99494.25
2024-01-15T12:12:58.521Z,99496.47
2024-01-15T12:15:29.800Z,99485.13
2024-01-15T12:18:00.001Z,99478.59
2024-01-15T12:20:28.732Z,99470.59
2024-01-15T12:23:01.698Z,99462.38
2024-01-15T12:25:33.178Z,99455.81
2024-01-15T12:28:02.426Z,99457.88
2024-01-15T12:30:34.985Z,99453.63
2024-01-15T12:33:05.417Z,99448.91
2024-01-15T12:35:35.609Z,99441.59
2024-01-15T12:38:04.278Z,99446.38
2024-01-15T12:40:34.432Z,99447.03
2024-01-15T12:43:02.999Z,99439.81
2024-01-15T12:45:31.487Z,99433.28
2024-01-15T12:48:01.869Z,99429.72
2024-01-15T12:50:29.981Z,99428.75
2024-01-15T12:52:57.671Z,99435.19
2024-01-15T12:55:25.333Z,99417.66
2024-01-15T12:57:56.746Z,99412.41
2024-01-15T13:00:27.523Z,99411.00
2024-01-15T13:02:56.327Z,99408.41
2024-01-15T13:05:25.393Z,99390.88
2024-01-15T13:07:54.111Z,99403.06
2024-01-15T13:10:24.881Z,99408.00
2024-01-15T13:12:53.833Z,99412.22
2024-01-15T13:15:21.563Z,99396.88
2024-01-15T13:17:49.183Z,99390.78
2024-01-15T13:20:17.144Z,99376.50
2024-01-15T13:22:45.926Z,99363.75
2024-01-15T13:25:14.261Z,99360.72
2024-01-15T13:27:43.112Z,99360.53
2024-01-15T13:30:12.395Z,99363.34
2024-01-15T13:32:40.117Z,99361.88
2024-01-15T13:35:11.315Z,99356.00
2024-01-15T13:37:39.532Z,99371.84
2024-01-15T13:40:10.854Z,99360.88
2024-01-15T13:42:39.597Z,99368.56
2024-01-15T13:45:08.816Z,99355.19
2024-01-15T13:47:38.795Z,99352.53
2024-01-15T13:50:07.830Z,99376.09
2024-01-15T13:52:36.145Z,99369.13
2024-01-15T13:55:04.647Z,99370.22
2024-01-15T13:57:32.673Z,99370.56
2024-01-15T14:00:01.332Z,99364.53
2024-01-15T14:02:28.940Z,99369.66
2024-01-15T14:04:56.516Z,99364.41
2024-01-15T14:07:25.106Z,99362.50
2024-01-15T14:09:53.868Z,99369.63
2024-01-15T14:12:22.842Z,99367.88
2024-01-15T14:14:50.665Z,99374.78
2024-01-15T14:17:19.071Z,99382.34
2024-01-15T14:19:46.673Z,99375.63
2024-01-15T14:22:14.724Z,99367.94
2024-01-15T14:24:42.770Z,99373.22
2024-01-15T14:27:11.196Z,99377.97
2024-01-15T14:29:39.502Z,99386.22
2024-01-15T14:32:07.068Z,99380.91
2024-01-15T14:34:37.468Z,99387.66
2024-01-15T14:37:05.264Z,99383.19
2024-01-15T14:39:35.595Z,99393.41
2024-01-15T14:42:03.449Z,99373.91
2024-01-15T14:44:31.157Z,99384.84
2024-01-15T14:47:00.046Z,99372.44
2024-01-15T14:49:28.244Z,99372.03
2024-01-15T14:51:56.201Z,99376.81
2024-01-15T14:54:24.947Z,99380.22
2024-01-15T14:56:53.785Z,99380.22
2024-01-15T14:59:21.452Z,99369.84
2024-01-15T15:01:49.615Z,99369.03
2024-01-15T15:04:17.490Z,99366.47
2024-01-15T15:06:45.356Z,99350.47
2024-01-15T15:09:14.519Z,99351.69
2024-01-15T15:11:42.154Z,99352.25
2024-01-15T15:14:09.690Z,99339.06
2024-01-15T15:16:38.547Z,99337.06
2024-01-15T15:19:06.360Z,99339.94
2024-01-15T15:21:34.120Z,99336.13
2024-01-15T15:24:01.994Z,99352.66
2024-01-15T15:26:30.282Z,99375.50
2024-01-15T15:28:58.289Z,99361.06
2024-01-15T15:31:26.161Z,99363.22
2024-01-15T15:33:54.313Z,99371.25
2024-01-15T15:36:22.375Z,99357.97
2024-01-15T15:38:50.068Z,99366.41
2024-01-15T15:41:17.631Z,99363.09
2024-01-15T15:43:45.751Z,99354.69
2024-01-15T15:46:13.861Z,99348.38
2024-01-15T15:48:42.063Z,99363.84
2024-01-15T15:51:10.377Z,99362.75
2024-01-15T15:53:39.003Z,99375.31
2024-01-15T15:56:07.921Z,99380.41
2024-01-15T15:58:36.326Z,99391.34
2024-01-15T16:01:05.271Z,99397.44
2024-01-15T16:03:33.047Z,99400.59
2024-01-15T16:06:01.480Z,99401.16
2024-01-15T16:08:29.377Z,99396.56
2024-01-15T16:10:57.007Z,99389.22
2024-01-15T16:13:26.800Z,99391.59
2024-01-15T16:23:08.506Z,99388.94
2024-01-15T16:23:22.072Z,99393.44
2024-01-15T16:23:37.055Z,99403.25
2024-01-15T16:26:50.859Z,99399.41
2024-01-15T16:29:20.549Z,99399.00
2024-01-15T16:31:48.654Z,99405.41
2024-01-15T16:34:16.940Z,99402.00
2024-01-15T16:36:44.623Z,99410.44
2024-01-15T16:39:12.302Z,99405.94
2024-01-15T16:41:40.412Z,99417.22
2024-01-15T16:44:08.114Z,99418.88
2024-01-15T16:46:35.911Z,99420.59
2024-01-15T16:49:09.363Z,99425.91
2024-01-15T16:51:37.523Z,99422.16
2024-01-15T16:54:05.371Z,99416.31
2024-01-15T16:56:32.964Z,99423.53
2024-01-15T16:59:01.107Z,99438.50
2024-01-15T17:01:28.696Z,99438.91
2024-01-15T17:03:57.083Z,99438.19
2024-01-15T17:06:24.684Z,99436.72
2024-01-15T17:08:52.709Z,99446.53
2024-01-15T17:11:20.338Z,99443.00
2024-01-15T17:13:48.569Z,99453.19
2024-01-15T17:16:16.587Z,99453.41
2024-01-15T17:18:45.986Z,99458.63
2024-01-15T17:21:13.744Z,99454.88
2024-01-15T17:23:41.405Z,99470.88
2024-01-15T17:26:09.402Z,99472.28
2024-01-15T17:28:37.037Z,99476.03
2024-01-15T17:31:04.739Z,99489.97
2024-01-15T17:33:33.694Z,99494.97
2024-01-15T17:36:02.430Z,99489.41
2024-01-15T17:38:30.528Z,99485.25
2024-01-15T17:40:59.174Z,99497.09
2024-01-15T17:43:27.334Z,99512.94
2024-01-15T17:45:56.568Z,99500.25
2024-01-15T17:48:24.711Z,99512.50
2024-01-15T17:50:53.089Z,99512.00
2024-01-15T17:53:21.817Z,99519.28
2024-01-15T17:55:50.476Z,99521.69
2024-01-15T17:58:18.563Z,99529.16
2024-01-15T18:00:46.515Z,99531.63
2024-01-15T18:03:15.664Z,99541.44
2024-01-15T18:05:43.578Z,99532.81
2024-01-15T18:08:13.430Z,99533.44
2024-01-15T18:10:41.870Z,99539.06
2024-01-15T18:13:11.564Z,99536.44
2024-01-15T18:15:41.355Z,99527.59
2024-01-15T18:18:09.047Z,99545.28
2024-01-15T18:20:37.554Z,99541.31
2024-01-15T18:23:05.389Z,99547.13
2024-01-15T18:25:33.763Z,99545.88
2024-01-15T18:28:01.468Z,99562.25
2024-01-15T18:30:28.992Z,99563.56
2024-01-15T18:32:56.691Z,99566.00
2024-01-15T18:35:26.974Z,99573.63
2024-01-15T18:37:54.817Z,99573.78
2024-01-15T18:40:23.519Z,99570.28
2024-01-15T18:42:51.237Z,99570.25
2024-01-15T18:45:18.950Z,99579.94
2024-01-15T18:47:47.179Z,99577.34
2024-01-15T18:50:15.863Z,99581.56
2024-01-15T18:52:43.697Z,99586.88
2024-01-15T18:55:14.589Z,99587.16
2024-01-15T18:57:42.541Z,99589.88
2024-01-15T19:00:12.063Z,99597.28
2024-01-15T19:02:39.880Z,99601.84
2024-01-15T19:05:08.483Z,99601.47
2024-01-15T19:07:37.544Z,99603.41
2024-01-15T19:10:06.407Z,99605.47
2024-01-15T19:12:34.170Z,99606.03
2024-01-15T19:15:03.112Z,99606.66
2024-01-15T19:17:31.807Z,99619.94
2024-01-15T19:19:59.449Z,99614.84
2024-01-15T19:22:28.649Z,99619.66
2024-01-15T19:24:56.946Z,99621.63
2024-01-15T19:27:24.679Z,99628.00
2024-01-15T19:29:52.683Z,99624.38
2024-01-15T19:32:20.659Z,99630.88
2024-01-15T19:34:48.242Z,99637.63
2024-01-15T19:37:15.943Z,99645.06
2024-01-15T19:39:43.642Z,99633.84
2024-01-15T19:42:11.916Z,99644.31
2024-01-15T19:44:39.482Z,99636.44
2024-01-15T19:47:07.085Z,99650.28
2024-01-15T19:49:35.495Z,99660.13
2024-01-15T19:52:03.133Z,99661.41
2024-01-15T19:54:30.795Z,99662.53
2024-01-15T19:56:58.967Z,99662.81
2024-01-15T19:59:27.070Z,99664.56
2024-01-15T20:01:55.538Z,99665.59
2024-01-15T20:04:23.702Z,99672.25
2024-01-15T20:06:51.318Z,99691.75
2024-01-15T20:09:19.873Z,99683.59
2024-01-15T20:11:48.073Z,99684.19
2024-01-15T20:14:16.445Z,99684.25
2024-01-15T20:16:44.452Z,99684.06
2024-01-15T20:19:13.219Z,99685.41
2024-01-15T20:21:41.475Z,99683.59
2024-01-15T20:24:09.100Z,99682.50
2024-01-15T20:26:36.867Z,99691.38
2024-01-15T20:29:04.464Z,99700.28
2024-01-15T20:31:32.630Z,99693.13
2024-01-15T20:34:00.442Z,99699.03
2024-01-15T20:36:28.596Z,99697.09
2024-01-15T20:38:56.350Z,99691.91
2024-01-15T20:41:25.951Z,99703.44
2024-01-15T20:43:54.199Z,99708.59
2024-01-15T20:46:23.472Z,99718.50
2024-01-15T20:48:51.404Z,99711.53
2024-01-15T20:51:19.215Z,99720.75
2024-01-15T20:53:49.618Z,99713.56
2024-01-15T20:56:17.826Z,99726.81
2024-01-15T20:58:45.957Z,99729.94
2024-01-15T21:01:14.171Z,99729.44
2024-01-15T21:03:41.916Z,99738.09
2024-01-15T21:06:10.893Z,99733.03
2024-01-15T21:08:41.293Z,99736.03
2024-01-15T21:11:09.291Z,99751.16
2024-01-15T21:13:36.922Z,99744.94
2024-01-15T21:16:06.683Z,99751.56
2024-01-15T21:18:35.552Z,99756.94
2024-01-15T21:21:03.403Z,99760.28
2024-01-15T21:23:32.638Z,99754.06
2024-01-15T21:26:01.090Z,99759.53
2024-01-15T21:28:31.203Z,99759.44
2024-01-15T21:31:00.896Z,99759.84
2024-01-15T21:33:38.032Z,99764.47
2024-01-15T21:36:06.921Z,99765.97
2024-01-15T21:38:35.452Z,99769.38
2024-01-15T21:41:03.881Z,99777.38
2024-01-15T21:43:32.223Z,99791.47
2024-01-15T21:46:00.580Z,99790.22
2024-01-15T21:48:28.941Z,99799.81
2024-01-15T21:50:57.029Z,99794.78
2024-01-15T21:53:25.262Z,99797.66
2024-01-15T21:55:53.041Z,99801.28
2024-01-15T21:58:21.390Z,99793.91
2024-01-15T22:00:49.093Z,99795.16
2024-01-15T22:03:18.399Z,99799.97
2024-01-15T22:05:47.830Z,99792.31
2024-01-15T22:08:16.048Z,99801.03
2024-01-15T22:10:44.089Z,99790.47
2024-01-15T22:13:12.098Z,99796.88
2024-01-15T22:15:40.479Z,99798.28
2024-01-15T22:18:08.398Z,99800.78
2024-01-15T22:20:36.200Z,99809.69
2024-01-15T22:23:04.108Z,99812.88
2024-01-15T22:25:33.290Z,99812.81
2024-01-15T22:28:00.953Z,99815.50
2024-01-15T22:30:28.544Z,99825.84
2024-01-15T22:32:56.342Z,99828.84
2024-01-15T22:35:24.124Z,99829.13
2024-01-15T22:37:52.683Z,99843.09
2024-01-15T22:40:21.155Z,99839.06
2024-01-15T22:42:49.091Z,99843.41
2024-01-15T22:45:17.648Z,99844.78
2024-01-15T22:47:45.812Z,99843.19
2024-01-15T22:50:14.530Z,99841.94
2024-01-15T22:52:42.232Z,99839.91
2024-01-15T22:55:10.052Z,99846.84
2024-01-15T22:57:37.729Z,99851.00
2024-01-15T23:00:20.003Z,99858.03
2024-01-15T23:02:48.690Z,99857.00
2024-01-15T23:05:17.588Z,99861.47
2024-01-15T23:07:45.608Z,99861.47
2024-01-15T23:10:15.153Z,99871.44
2024-01-15T23:12:43.253Z,99865.47
2024-01-15T23:15:11.026Z,99877.22
2024-01-15T23:17:39.243Z,99880.56
2024-01-15T23:20:09.944Z,99884.38
2024-01-15T23:22:40.990Z,99870.00
2024-01-15T23:25:10.017Z,99879.19
2024-01-15T23:27:38.313Z,99878.13
2024-01-15T23:30:06.518Z,99879.66
2024-01-15T23:32:34.166Z,99881.47
2024-01-15T23:35:04.647Z,99883.13
2024-01-15T23:37:32.320Z,99881.72
2024-01-15T23:40:00.333Z,99887.31
2024-01-15T23:42:28.124Z,99899.09
2024-01-15T23:44:55.908Z,99894.66
2024-01-15T23:47:24.800Z,99903.00
2024-01-15T23:49:52.554Z,99900.50
2024-01-15T23:52:20.232Z,99909.44
2024-01-15T23:54:48.187Z,99899.84
2024-01-15T23:57:15.854Z,99901.22
2024-01-15T23:59:44.074Z,99901.31
